Aviation Digital Data Service (ADDS)

Output produced by TAFs form (1153 UTC 27 May 2017)
found at http://www.aviationweather.gov/adds/tafs/
 
METAR text: RJBT 270900Z 30004KT 260V330 9999 FEW020 SCT050 17/17 Q1012
Conditions at: RJBT (TAJIMA , JP) observed 0900 UTC 27 May 2017
Temperature: 17.0°C (63°F)
Dewpoint: 17.0°C (63°F) [RH = 100%]
Pressure (altimeter): 29.88 inches Hg (1012.0 mb)
Winds: from the WNW (300 degrees) at 5 MPH (4 knots; 2.1 m/s)
Visibility: 6 or more miles (10+ km)
Ceiling: at least 12,000 feet AGL
Clouds: few clouds at 2000 feet AGL
scattered clouds at 5000 feet AGL
Weather: no significant weather observed at this time